Salina, Arizona
Current Conditions -  °F | °C
As of 11:53 PM on Thursday 30 Oct 2014 (Local Time) from KRQE Reporting Station
Clear Clear  
Wind Chill: 38°   Ceiling: Unl
Heat Index: 38°   Visibility: 10mi
Dew Point: 15°   Wind: 0mph
Humidity: 39%   Direction: NA
Pressure: 30.32"   Gusts: NA
Location:  36.1012°N, 109.584°W
Report Text: KRQE 310553Z AUTO 00000KT 10SM CLR 03/M09 A3032 RMK AO2 SLP201 T00331094 10206 20028 50004 TSNO
Loading
Personal Weather Stations






























Interactive Weather Map
Tropical Storm Tracking
New forecast layout! Learn more

10-Day Weather Forecast

Advertisements
Track Severe Weather on mobile